CST,Max TemperatureF,Mean TemperatureF,Min TemperatureF,Max Dew PointF,MeanDew PointF,Min DewpointF,Max Humidity, Mean Humidity, Min Humidity, Max Sea Level PressureIn, Mean Sea Level PressureIn, Min Sea Level PressureIn, Max VisibilityMiles, Mean VisibilityMiles, Min VisibilityMiles, Max Wind SpeedMPH, Mean Wind SpeedMPH, Max Gust SpeedMPH,PrecipitationIn, CloudCover, Events, WindDirDegrees
2012-11-1,46,37,28,39,28,21,93,73,42,30.09,30.05,29.97,10,10,7,21,15,29,0.00,3,,346
2012-11-2,37,32,26,28,26,21,86,75,65,30.15,30.11,30.06,10,10,10,10,5,,0.00,4,,89
2012-11-3,44,40,35,37,32,28,100,78,57,30.20,30.17,30.15,10,9,2,7,2,,0.00,8,Rain-Snow,146
2012-11-4,42,40,37,37,36,36,100,92,76,30.19,30.16,30.12,10,5,0,8,2,,0.00,8,Fog,79
2012-11-5,39,37,35,36,35,34,100,91,87,30.18,30.09,29.84,10,8,3,13,6,20,0.02,7,Rain-Snow,74
2012-11-6,46,42,37,39,36,34,93,78,66,30.04,29.89,29.78,10,9,4,28,13,36,0.06,7,Rain,308
2012-11-7,51,38,24,36,32,25,100,74,44,30.10,30.02,29.91,10,10,10,14,6,20,0.00,1,,196
2012-11-8,53,44,35,39,35,32,87,75,50,30.04,29.93,29.83,10,10,7,22,11,28,0.00,3,,32
2012-11-9,48,40,33,39,37,32,93,80,71,30.04,29.95,29.82,10,10,7,23,12,30,0.00,6,,66
2012-11-10,62,48,35,54,45,34,94,86,68,29.80,29.56,29.42,10,5,1,22,14,30,0.20,7,Rain-Thunderstorm,134
2012-11-11,35,26,17,34,18,10,93,73,64,29.94,29.83,29.59,10,10,7,25,19,30,0.00,6,Snow,284
2012-11-12,26,22,17,18,14,9,93,75,63,30.27,30.09,29.92,10,9,1,22,14,28,0.00,3,Snow,277
2012-11-13,48,32,17,28,22,12,93,69,30,30.26,30.23,30.19,10,10,10,8,3,,0.00,2,,165
2012-11-14,53,38,24,34,29,23,100,70,41,30.23,30.16,30.08,10,10,7,10,3,,0.00,2,,171
2012-11-15,41,29,17,32,23,14,100,75,42,30.50,30.31,30.07,10,10,5,22,7,26,0.00,0,,319
2012-11-16,44,30,15,28,20,14,100,69,34,30.49,30.34,30.16,10,10,7,16,5,22,0.00,0,,143
2012-11-17,60,48,37,37,34,30,81,62,36,30.16,30.09,30.03,10,10,10,20,11,30,0.00,0,,160
2012-11-18,62,48,35,37,34,30,87,62,37,30.03,29.99,29.94,10,10,7,13,9,18,0.00,0,,148
2012-11-19,57,44,30,39,35,28,100,73,51,30.13,30.02,29.94,10,10,7,13,8,,0.00,0,,304
2012-11-20,55,37,19,37,27,18,100,74,41,30.19,30.08,29.92,10,6,0,12,4,,0.00,3,Fog-Snow,137
2012-11-21,62,46,30,37,34,27,93,63,37,29.92,29.78,29.57,10,10,5,12,5,18,0.00,0,,156
2012-11-22,53,38,23,36,30,16,87,73,51,30.19,29.83,29.56,10,10,1,33,15,43,0.02,5,Snow,301
2012-11-23,24,16,8,16,11,3,92,74,59,30.45,30.38,30.20,10,10,5,34,21,43,0.00,5,Snow,325
2012-11-24,35,22,8,27,15,5,92,73,52,30.37,30.03,29.79,10,10,10,16,5,20,0.00,4,,179
2012-11-25,35,27,17,28,20,9,86,71,52,30.26,30.02,29.83,10,10,10,26,16,34,0.00,8,,329
2012-11-26,24,15,6,10,6,1,85,68,46,30.46,30.36,30.26,10,10,10,20,11,26,0.00,1,,290
2012-11-27,39,27,15,25,19,10,93,74,52,30.27,30.17,30.08,10,10,10,14,6,,0.00,1,,268
2012-11-28,42,30,19,27,23,18,93,75,49,30.31,30.18,30.02,10,10,7,13,5,17,0.00,3,,177
2012-11-29,39,27,15,27,22,14,93,80,56,30.09,30.05,30.01,10,9,5,15,5,,0.00,1,,58
2012-11-30,35,24,14,32,25,12,93,87,75,30.16,30.06,29.90,10,6,3,18,7,24,0.00,3,,114